sensor_id;sensor_type;location;lat;lon;timestamp;temperature;humidity
25939;DHT22;13739;51.172;4.466;2022-09-27T00:01:10;10.80;99.90
25939;DHT22;13739;51.172;4.466;2022-09-27T00:03:36;10.80;99.90
25939;DHT22;13739;51.172;4.466;2022-09-27T00:06:26;10.90;99.90
25939;DHT22;13739;51.172;4.466;2022-09-27T00:08:52;10.90;99.90
25939;DHT22;13739;51.172;4.466;2022-09-27T00:11:31;10.90;99.90
25939;DHT22;13739;51.172;4.466;2022-09-27T00:13:58;10.90;99.90
25939;DHT22;13739;51.172;4.466;2022-09-27T00:16:34;11.00;99.90
25939;DHT22;13739;51.172;4.466;2022-09-27T00:19:02;11.00;99.90
25939;DHT22;13739;51.172;4.466;2022-09-27T00:21:29;11.00;99.90
25939;DHT22;13739;51.172;4.466;2022-09-27T00:23:55;10.90;99.90
25939;DHT22;13739;51.172;4.466;2022-09-27T00:26:21;10.80;99.90
25939;DHT22;13739;51.172;4.466;2022-09-27T00:28:47;10.80;99.90
25939;DHT22;13739;51.172;4.466;2022-09-27T00:31:17;10.90;99.90
25939;DHT22;13739;51.172;4.466;2022-09-27T00:33:46;10.80;99.90
25939;DHT22;13739;51.172;4.466;2022-09-27T00:36:12;10.80;99.90
25939;DHT22;13739;51.172;4.466;2022-09-27T00:38:40;10.70;99.90
25939;DHT22;13739;51.172;4.466;2022-09-27T00:41:06;10.70;99.90
25939;DHT22;13739;51.172;4.466;2022-09-27T00:43:57;10.60;99.90
25939;DHT22;13739;51.172;4.466;2022-09-27T00:46:37;10.50;99.90
25939;DHT22;13739;51.172;4.466;2022-09-27T00:49:24;10.50;99.90
25939;DHT22;13739;51.172;4.466;2022-09-27T00:51:54;10.60;99.90
25939;DHT22;13739;51.172;4.466;2022-09-27T00:54:24;10.60;99.90
25939;DHT22;13739;51.172;4.466;2022-09-27T00:56:51;10.60;99.90
25939;DHT22;13739;51.172;4.466;2022-09-27T00:59:29;10.70;99.90
25939;DHT22;13739;51.172;4.466;2022-09-27T01:01:58;10.70;99.90
25939;DHT22;13739;51.172;4.466;2022-09-27T01:04:26;10.70;99.90
25939;DHT22;13739;51.172;4.466;2022-09-27T01:06:53;10.80;99.90
25939;DHT22;13739;51.172;4.466;2022-09-27T01:09:19;10.90;99.90
25939;DHT22;13739;51.172;4.466;2022-09-27T01:17:37;11.00;99.90
25939;DHT22;13739;51.172;4.466;2022-09-27T01:23:06;10.80;99.90
25939;DHT22;13739;51.172;4.466;2022-09-27T01:29:12;10.70;99.90
25939;DHT22;13739;51.172;4.466;2022-09-27T01:31:50;10.60;99.90
25939;DHT22;13739;51.172;4.466;2022-09-27T01:37:21;10.50;99.90
25939;DHT22;13739;51.172;4.466;2022-09-27T01:42:24;10.30;99.90
25939;DHT22;13739;51.172;4.466;2022-09-27T01:44:58;10.30;99.90
25939;DHT22;13739;51.172;4.466;2022-09-27T01:47:50;10.20;99.90
25939;DHT22;13739;51.172;4.466;2022-09-27T01:53:38;10.30;99.90
25939;DHT22;13739;51.172;4.466;2022-09-27T01:56:10;10.30;99.90
25939;DHT22;13739;51.172;4.466;2022-09-27T01:58:45;10.10;99.90
25939;DHT22;13739;51.172;4.466;2022-09-27T02:01:14;10.20;99.90
25939;DHT22;13739;51.172;4.466;2022-09-27T02:03:48;10.10;99.90
25939;DHT22;13739;51.172;4.466;2022-09-27T02:06:24;10.10;99.90
25939;DHT22;13739;51.172;4.466;2022-09-27T02:11:28;10.00;99.90
25939;DHT22;13739;51.172;4.466;2022-09-27T02:14:37;10.00;99.90
25939;DHT22;13739;51.172;4.466;2022-09-27T02:22:31;9.80;99.90
25939;DHT22;13739;51.172;4.466;2022-09-27T02:25:24;9.90;99.90
25939;DHT22;13739;51.172;4.466;2022-09-27T02:30:16;9.50;99.90
25939;DHT22;13739;51.172;4.466;2022-09-27T02:32:42;9.40;99.90
25939;DHT22;13739;51.172;4.466;2022-09-27T02:35:18;9.40;99.90
25939;DHT22;13739;51.172;4.466;2022-09-27T02:37:46;9.40;99.90
25939;DHT22;13739;51.172;4.466;2022-09-27T02:40:12;9.30;99.90
25939;DHT22;13739;51.172;4.466;2022-09-27T02:42:39;9.40;99.90
25939;DHT22;13739;51.172;4.466;2022-09-27T02:45:07;9.40;99.90
25939;DHT22;13739;51.172;4.466;2022-09-27T02:51:28;9.30;99.90
25939;DHT22;13739;51.172;4.466;2022-09-27T02:59:29;9.50;99.90
25939;DHT22;13739;51.172;4.466;2022-09-27T03:02:13;9.50;99.90
25939;DHT22;13739;51.172;4.466;2022-09-27T03:04:44;9.60;99.90
25939;DHT22;13739;51.172;4.466;2022-09-27T03:07:12;9.40;99.90
25939;DHT22;13739;51.172;4.466;2022-09-27T03:09:50;9.40;99.90
25939;DHT22;13739;51.172;4.466;2022-09-27T03:12:18;9.50;99.90
25939;DHT22;13739;51.172;4.466;2022-09-27T03:14:47;9.50;99.90
25939;DHT22;13739;51.172;4.466;2022-09-27T03:17:14;9.70;99.90
25939;DHT22;13739;51.172;4.466;2022-09-27T03:19:39;9.70;99.90
25939;DHT22;13739;51.172;4.466;2022-09-27T03:22:05;9.70;99.90
25939;DHT22;13739;51.172;4.466;2022-09-27T03:24:31;9.70;99.90
25939;DHT22;13739;51.172;4.466;2022-09-27T03:26:57;9.70;99.90
25939;DHT22;13739;51.172;4.466;2022-09-27T03:29:22;9.80;99.90
25939;DHT22;13739;51.172;4.466;2022-09-27T03:31:48;9.70;99.90
25939;DHT22;13739;51.172;4.466;2022-09-27T03:34:13;9.70;99.90
25939;DHT22;13739;51.172;4.466;2022-09-27T03:36:39;9.70;99.90
25939;DHT22;13739;51.172;4.466;2022-09-27T03:39:05;9.70;99.90
25939;DHT22;13739;51.172;4.466;2022-09-27T03:41:31;9.80;99.90
25939;DHT22;13739;51.172;4.466;2022-09-27T03:43:56;9.80;99.90
25939;DHT22;13739;51.172;4.466;2022-09-27T03:46:24;9.90;99.90
25939;DHT22;13739;51.172;4.466;2022-09-27T03:48:50;9.80;99.90
25939;DHT22;13739;51.172;4.466;2022-09-27T03:51:16;9.70;99.90
25939;DHT22;13739;51.172;4.466;2022-09-27T03:53:42;9.80;99.90
25939;DHT22;13739;51.172;4.466;2022-09-27T03:56:08;10.00;99.90
25939;DHT22;13739;51.172;4.466;2022-09-27T03:58:34;9.80;99.90
25939;DHT22;13739;51.172;4.466;2022-09-27T04:00:59;9.70;99.90
25939;DHT22;13739;51.172;4.466;2022-09-27T04:03:25;9.70;99.90
25939;DHT22;13739;51.172;4.466;2022-09-27T04:05:52;9.70;99.90
25939;DHT22;13739;51.172;4.466;2022-09-27T04:08:18;9.60;99.90
25939;DHT22;13739;51.172;4.466;2022-09-27T04:10:46;9.90;99.90
25939;DHT22;13739;51.172;4.466;2022-09-27T04:13:12;9.90;99.90
25939;DHT22;13739;51.172;4.466;2022-09-27T04:15:38;9.90;99.90
25939;DHT22;13739;51.172;4.466;2022-09-27T04:18:04;10.00;99.90
25939;DHT22;13739;51.172;4.466;2022-09-27T04:20:30;10.00;99.90
25939;DHT22;13739;51.172;4.466;2022-09-27T04:22:56;9.90;99.90
25939;DHT22;13739;51.172;4.466;2022-09-27T04:25:22;10.00;99.90
25939;DHT22;13739;51.172;4.466;2022-09-27T04:27:48;10.00;99.90
25939;DHT22;13739;51.172;4.466;2022-09-27T04:30:16;10.00;99.90
25939;DHT22;13739;51.172;4.466;2022-09-27T04:32:43;9.90;99.90
25939;DHT22;13739;51.172;4.466;2022-09-27T04:35:10;10.00;99.90
25939;DHT22;13739;51.172;4.466;2022-09-27T04:37:54;9.90;99.90
25939;DHT22;13739;51.172;4.466;2022-09-27T04:40:20;10.00;99.90
25939;DHT22;13739;51.172;4.466;2022-09-27T04:42:50;9.90;99.90
25939;DHT22;13739;51.172;4.466;2022-09-27T04:45:17;10.00;99.90
25939;DHT22;13739;51.172;4.466;2022-09-27T04:47:48;10.10;99.90
25939;DHT22;13739;51.172;4.466;2022-09-27T04:50:14;9.90;99.90
25939;DHT22;13739;51.172;4.466;2022-09-27T04:52:40;10.00;99.90
25939;DHT22;13739;51.172;4.466;2022-09-27T04:55:07;10.10;99.90
25939;DHT22;13739;51.172;4.466;2022-09-27T04:57:33;10.20;99.90
25939;DHT22;13739;51.172;4.466;2022-09-27T04:59:58;10.20;99.90
25939;DHT22;13739;51.172;4.466;2022-09-27T05:02:25;10.10;99.90
25939;DHT22;13739;51.172;4.466;2022-09-27T05:04:52;10.20;99.90
25939;DHT22;13739;51.172;4.466;2022-09-27T05:07:18;10.20;99.90
25939;DHT22;13739;51.172;4.466;2022-09-27T05:09:47;10.10;99.90
25939;DHT22;13739;51.172;4.466;2022-09-27T05:12:13;10.10;99.90
25939;DHT22;13739;51.172;4.466;2022-09-27T05:14:38;9.90;99.90
25939;DHT22;13739;51.172;4.466;2022-09-27T05:17:04;9.80;99.90
25939;DHT22;13739;51.172;4.466;2022-09-27T05:19:32;9.70;99.90
25939;DHT22;13739;51.172;4.466;2022-09-27T05:21:58;9.80;99.90
25939;DHT22;13739;51.172;4.466;2022-09-27T05:24:24;9.90;99.90
25939;DHT22;13739;51.172;4.466;2022-09-27T05:26:49;9.80;99.90
25939;DHT22;13739;51.172;4.466;2022-09-27T05:29:15;10.10;99.90
25939;DHT22;13739;51.172;4.466;2022-09-27T05:31:42;10.10;99.90
25939;DHT22;13739;51.172;4.466;2022-09-27T05:34:07;10.10;99.90
25939;DHT22;13739;51.172;4.466;2022-09-27T05:36:35;10.20;99.90
25939;DHT22;13739;51.172;4.466;2022-09-27T05:39:02;10.10;99.90
25939;DHT22;13739;51.172;4.466;2022-09-27T05:41:27;10.20;99.90
25939;DHT22;13739;51.172;4.466;2022-09-27T05:43:53;10.00;99.90
25939;DHT22;13739;51.172;4.466;2022-09-27T05:46:20;9.60;99.90
25939;DHT22;13739;51.172;4.466;2022-09-27T05:48:45;9.50;99.90
25939;DHT22;13739;51.172;4.466;2022-09-27T05:51:11;9.70;99.90
25939;DHT22;13739;51.172;4.466;2022-09-27T05:53:37;9.80;99.90
25939;DHT22;13739;51.172;4.466;2022-09-27T05:56:03;9.90;99.90
25939;DHT22;13739;51.172;4.466;2022-09-27T05:58:29;9.80;99.90
25939;DHT22;13739;51.172;4.466;2022-09-27T06:00:54;9.80;99.90
25939;DHT22;13739;51.172;4.466;2022-09-27T06:03:20;9.90;99.90
25939;DHT22;13739;51.172;4.466;2022-09-27T06:05:46;9.80;99.90
25939;DHT22;13739;51.172;4.466;2022-09-27T06:08:12;9.90;99.90
25939;DHT22;13739;51.172;4.466;2022-09-27T06:10:39;10.00;99.90
25939;DHT22;13739;51.172;4.466;2022-09-27T06:13:08;10.00;99.90
25939;DHT22;13739;51.172;4.466;2022-09-27T06:15:35;10.10;99.90
25939;DHT22;13739;51.172;4.466;2022-09-27T06:18:13;10.10;99.90
25939;DHT22;13739;51.172;4.466;2022-09-27T06:20:41;10.20;99.90
25939;DHT22;13739;51.172;4.466;2022-09-27T06:23:15;10.10;99.90
25939;DHT22;13739;51.172;4.466;2022-09-27T06:25:41;10.10;99.90
25939;DHT22;13739;51.172;4.466;2022-09-27T06:28:07;10.20;99.90
25939;DHT22;13739;51.172;4.466;2022-09-27T06:30:40;10.20;99.90
25939;DHT22;13739;51.172;4.466;2022-09-27T06:33:08;10.30;99.90
25939;DHT22;13739;51.172;4.466;2022-09-27T06:35:35;10.30;99.90
25939;DHT22;13739;51.172;4.466;2022-09-27T06:38:05;10.20;99.90
25939;DHT22;13739;51.172;4.466;2022-09-27T06:40:33;10.20;99.90
25939;DHT22;13739;51.172;4.466;2022-09-27T06:43:06;10.20;99.90
25939;DHT22;13739;51.172;4.466;2022-09-27T06:45:33;10.30;99.90
25939;DHT22;13739;51.172;4.466;2022-09-27T06:48:06;10.40;99.90
25939;DHT22;13739;51.172;4.466;2022-09-27T06:50:34;10.40;99.90
25939;DHT22;13739;51.172;4.466;2022-09-27T06:53:03;10.50;99.90
25939;DHT22;13739;51.172;4.466;2022-09-27T06:55:30;10.40;99.90
25939;DHT22;13739;51.172;4.466;2022-09-27T06:57:56;10.50;99.90
25939;DHT22;13739;51.172;4.466;2022-09-27T07:00:41;10.30;99.90
25939;DHT22;13739;51.172;4.466;2022-09-27T07:03:10;10.30;99.90
25939;DHT22;13739;51.172;4.466;2022-09-27T07:05:36;10.30;99.90
25939;DHT22;13739;51.172;4.466;2022-09-27T07:08:02;10.30;99.90
25939;DHT22;13739;51.172;4.466;2022-09-27T07:10:34;10.30;99.90
25939;DHT22;13739;51.172;4.466;2022-09-27T07:13:08;10.50;99.90
25939;DHT22;13739;51.172;4.466;2022-09-27T07:15:34;10.60;99.90
25939;DHT22;13739;51.172;4.466;2022-09-27T07:18:02;10.60;99.90
25939;DHT22;13739;51.172;4.466;2022-09-27T07:20:28;10.40;99.90
25939;DHT22;13739;51.172;4.466;2022-09-27T07:22:54;10.40;99.90
25939;DHT22;13739;51.172;4.466;2022-09-27T07:25:20;10.50;99.90
25939;DHT22;13739;51.172;4.466;2022-09-27T07:27:46;10.60;99.90
25939;DHT22;13739;51.172;4.466;2022-09-27T07:30:12;10.70;99.90
25939;DHT22;13739;51.172;4.466;2022-09-27T07:32:38;10.80;99.90
25939;DHT22;13739;51.172;4.466;2022-09-27T07:35:06;10.80;99.90
25939;DHT22;13739;51.172;4.466;2022-09-27T07:37:33;10.80;99.90
25939;DHT22;13739;51.172;4.466;2022-09-27T07:39:59;10.80;99.90
25939;DHT22;13739;51.172;4.466;2022-09-27T07:42:26;10.90;99.90
25939;DHT22;13739;51.172;4.466;2022-09-27T07:44:56;11.00;99.90
25939;DHT22;13739;51.172;4.466;2022-09-27T07:47:22;11.10;99.90
25939;DHT22;13739;51.172;4.466;2022-09-27T07:49:49;11.10;99.90
25939;DHT22;13739;51.172;4.466;2022-09-27T07:52:16;11.10;99.90
25939;DHT22;13739;51.172;4.466;2022-09-27T07:54:41;11.20;99.90
25939;DHT22;13739;51.172;4.466;2022-09-27T07:57:08;11.10;99.90
25939;DHT22;13739;51.172;4.466;2022-09-27T07:59:33;11.10;99.90
25939;DHT22;13739;51.172;4.466;2022-09-27T08:01:59;11.10;99.90
25939;DHT22;13739;51.172;4.466;2022-09-27T08:04:24;11.00;99.90
25939;DHT22;13739;51.172;4.466;2022-09-27T08:06:50;10.80;99.90
25939;DHT22;13739;51.172;4.466;2022-09-27T08:09:16;10.60;99.90
25939;DHT22;13739;51.172;4.466;2022-09-27T08:11:41;10.50;99.90
25939;DHT22;13739;51.172;4.466;2022-09-27T08:14:09;10.60;99.90
25939;DHT22;13739;51.172;4.466;2022-09-27T08:16:35;10.60;99.90
25939;DHT22;13739;51.172;4.466;2022-09-27T08:19:01;10.70;99.90
25939;DHT22;13739;51.172;4.466;2022-09-27T08:21:26;10.80;99.90
25939;DHT22;13739;51.172;4.466;2022-09-27T08:23:52;10.90;99.90
25939;DHT22;13739;51.172;4.466;2022-09-27T08:26:18;10.90;99.90
25939;DHT22;13739;51.172;4.466;2022-09-27T08:28:46;10.80;99.90
25939;DHT22;13739;51.172;4.466;2022-09-27T08:31:12;10.90;99.90
25939;DHT22;13739;51.172;4.466;2022-09-27T08:33:38;10.80;99.90
25939;DHT22;13739;51.172;4.466;2022-09-27T08:36:09;10.80;99.90
25939;DHT22;13739;51.172;4.466;2022-09-27T08:38:34;10.80;99.90
25939;DHT22;13739;51.172;4.466;2022-09-27T08:41:26;10.90;99.90
25939;DHT22;13739;51.172;4.466;2022-09-27T08:49:23;11.10;99.90
25939;DHT22;13739;51.172;4.466;2022-09-27T08:51:52;11.10;99.90
25939;DHT22;13739;51.172;4.466;2022-09-27T08:54:27;11.20;99.90
25939;DHT22;13739;51.172;4.466;2022-09-27T08:57:00;11.20;99.90
25939;DHT22;13739;51.172;4.466;2022-09-27T08:59:40;11.30;99.90
25939;DHT22;13739;51.172;4.466;2022-09-27T09:02:21;11.40;99.90
25939;DHT22;13739;51.172;4.466;2022-09-27T09:04:56;11.50;99.90
25939;DHT22;13739;51.172;4.466;2022-09-27T09:19:13;11.50;99.90
25939;DHT22;13739;51.172;4.466;2022-09-27T09:27:49;11.10;99.90
25939;DHT22;13739;51.172;4.466;2022-09-27T09:30:22;11.40;99.90
25939;DHT22;13739;51.172;4.466;2022-09-27T09:43:55;11.30;99.90
25939;DHT22;13739;51.172;4.466;2022-09-27T09:46:40;11.30;99.90
25939;DHT22;13739;51.172;4.466;2022-09-27T09:51:51;11.40;99.90
25939;DHT22;13739;51.172;4.466;2022-09-27T09:54:31;11.30;99.90
25939;DHT22;13739;51.172;4.466;2022-09-27T09:57:19;11.30;99.90
25939;DHT22;13739;51.172;4.466;2022-09-27T10:02:34;11.50;99.90
25939;DHT22;13739;51.172;4.466;2022-09-27T10:05:02;11.70;99.90
25939;DHT22;13739;51.172;4.466;2022-09-27T10:07:28;11.70;99.90
25939;DHT22;13739;51.172;4.466;2022-09-27T10:09:58;11.70;99.90
25939;DHT22;13739;51.172;4.466;2022-09-27T10:12:25;11.90;99.90
25939;DHT22;13739;51.172;4.466;2022-09-27T10:14:53;11.80;99.90
25939;DHT22;13739;51.172;4.466;2022-09-27T10:17:23;11.70;99.90
25939;DHT22;13739;51.172;4.466;2022-09-27T10:19:49;11.60;99.90
25939;DHT22;13739;51.172;4.466;2022-09-27T10:22:32;11.70;99.90
25939;DHT22;13739;51.172;4.466;2022-09-27T10:25:03;11.90;99.90
25939;DHT22;13739;51.172;4.466;2022-09-27T10:27:52;12.00;99.90
25939;DHT22;13739;51.172;4.466;2022-09-27T10:30:28;11.80;99.90
25939;DHT22;13739;51.172;4.466;2022-09-27T10:33:04;11.80;99.90
25939;DHT22;13739;51.172;4.466;2022-09-27T10:35:35;11.90;99.90
25939;DHT22;13739;51.172;4.466;2022-09-27T10:38:20;12.10;99.90
25939;DHT22;13739;51.172;4.466;2022-09-27T10:40:48;12.40;99.90
25939;DHT22;13739;51.172;4.466;2022-09-27T10:43:33;12.60;99.90
25939;DHT22;13739;51.172;4.466;2022-09-27T10:46:19;12.80;99.90
25939;DHT22;13739;51.172;4.466;2022-09-27T10:48:46;12.90;99.90
25939;DHT22;13739;51.172;4.466;2022-09-27T10:51:29;13.20;99.90
25939;DHT22;13739;51.172;4.466;2022-09-27T10:53:55;13.20;99.90
25939;DHT22;13739;51.172;4.466;2022-09-27T10:56:32;13.20;99.90
25939;DHT22;13739;51.172;4.466;2022-09-27T10:58:59;13.50;99.90
25939;DHT22;13739;51.172;4.466;2022-09-27T11:01:41;13.40;99.90
25939;DHT22;13739;51.172;4.466;2022-09-27T11:04:25;13.50;99.90
25939;DHT22;13739;51.172;4.466;2022-09-27T11:06:51;13.20;99.90
25939;DHT22;13739;51.172;4.466;2022-09-27T11:09:22;13.10;99.90
25939;DHT22;13739;51.172;4.466;2022-09-27T11:12:04;13.10;99.90
25939;DHT22;13739;51.172;4.466;2022-09-27T11:14:30;13.00;99.90
25939;DHT22;13739;51.172;4.466;2022-09-27T11:17:12;12.80;99.90
25939;DHT22;13739;51.172;4.466;2022-09-27T11:25:40;12.90;99.90
25939;DHT22;13739;51.172;4.466;2022-09-27T11:28:32;13.00;99.90
25939;DHT22;13739;51.172;4.466;2022-09-27T11:48:00;12.90;99.90
25939;DHT22;13739;51.172;4.466;2022-09-27T11:53:31;13.20;99.90
25939;DHT22;13739;51.172;4.466;2022-09-27T11:59:02;12.40;99.90
25939;DHT22;13739;51.172;4.466;2022-09-27T12:04:35;10.90;99.90
25939;DHT22;13739;51.172;4.466;2022-09-27T12:07:23;10.50;99.90
25939;DHT22;13739;51.172;4.466;2022-09-27T12:09:58;10.50;99.90
25939;DHT22;13739;51.172;4.466;2022-09-27T12:12:28;10.70;99.90
25939;DHT22;13739;51.172;4.466;2022-09-27T12:15:01;10.90;99.90
25939;DHT22;13739;51.172;4.466;2022-09-27T12:17:32;11.10;99.90
25939;DHT22;13739;51.172;4.466;2022-09-27T12:20:03;11.40;99.90
25939;DHT22;13739;51.172;4.466;2022-09-27T12:22:37;11.80;99.90
25939;DHT22;13739;51.172;4.466;2022-09-27T12:25:04;11.90;99.90
25939;DHT22;13739;51.172;4.466;2022-09-27T12:27:34;12.10;99.90
25939;DHT22;13739;51.172;4.466;2022-09-27T12:30:01;12.50;99.90
25939;DHT22;13739;51.172;4.466;2022-09-27T12:35:02;13.10;99.90
25939;DHT22;13739;51.172;4.466;2022-09-27T12:37:49;13.30;99.90
25939;DHT22;13739;51.172;4.466;2022-09-27T12:40:27;13.40;99.90
25939;DHT22;13739;51.172;4.466;2022-09-27T12:42:59;13.40;99.90
25939;DHT22;13739;51.172;4.466;2022-09-27T12:45:58;13.30;99.90
25939;DHT22;13739;51.172;4.466;2022-09-27T12:48:27;13.40;99.90
25939;DHT22;13739;51.172;4.466;2022-09-27T12:51:20;13.40;99.90
25939;DHT22;13739;51.172;4.466;2022-09-27T13:05:08;13.10;99.90
25939;DHT22;13739;51.172;4.466;2022-09-27T13:07:52;13.10;99.90
25939;DHT22;13739;51.172;4.466;2022-09-27T13:13:11;13.30;99.90
25939;DHT22;13739;51.172;4.466;2022-09-27T13:15:38;13.20;99.90
25939;DHT22;13739;51.172;4.466;2022-09-27T13:18:18;13.10;99.90
25939;DHT22;13739;51.172;4.466;2022-09-27T13:20:51;13.20;99.90
25939;DHT22;13739;51.172;4.466;2022-09-27T13:30:54;12.70;99.90
25939;DHT22;13739;51.172;4.466;2022-09-27T13:33:27;12.40;99.90
25939;DHT22;13739;51.172;4.466;2022-09-27T13:47:22;12.50;99.90
25939;DHT22;13739;51.172;4.466;2022-09-27T13:49:54;12.60;99.90
25939;DHT22;13739;51.172;4.466;2022-09-27T13:52:28;12.70;99.90
25939;DHT22;13739;51.172;4.466;2022-09-27T13:54:59;12.60;99.90
25939;DHT22;13739;51.172;4.466;2022-09-27T14:00:31;12.40;99.90
25939;DHT22;13739;51.172;4.466;2022-09-27T14:05:40;12.20;99.90
25939;DHT22;13739;51.172;4.466;2022-09-27T14:10:56;11.60;99.90
25939;DHT22;13739;51.172;4.466;2022-09-27T14:13:24;11.60;99.90
25939;DHT22;13739;51.172;4.466;2022-09-27T14:15:53;11.60;99.90
25939;DHT22;13739;51.172;4.466;2022-09-27T14:18:19;11.70;99.90
25939;DHT22;13739;51.172;4.466;2022-09-27T14:20:48;11.70;99.90
25939;DHT22;13739;51.172;4.466;2022-09-27T14:23:19;11.60;99.90
25939;DHT22;13739;51.172;4.466;2022-09-27T14:25:46;11.60;99.90
25939;DHT22;13739;51.172;4.466;2022-09-27T14:28:29;11.70;99.90
25939;DHT22;13739;51.172;4.466;2022-09-27T14:31:24;11.80;99.90
25939;DHT22;13739;51.172;4.466;2022-09-27T14:34:04;11.90;99.90
25939;DHT22;13739;51.172;4.466;2022-09-27T14:36:32;12.00;99.90
25939;DHT22;13739;51.172;4.466;2022-09-27T14:39:28;12.10;99.90
25939;DHT22;13739;51.172;4.466;2022-09-27T14:41:58;12.10;99.90
25939;DHT22;13739;51.172;4.466;2022-09-27T14:44:24;12.10;99.90
25939;DHT22;13739;51.172;4.466;2022-09-27T14:47:16;12.10;99.90
25939;DHT22;13739;51.172;4.466;2022-09-27T14:49:47;12.10;99.90
25939;DHT22;13739;51.172;4.466;2022-09-27T14:52:19;12.10;99.90
25939;DHT22;13739;51.172;4.466;2022-09-27T14:54:59;12.20;99.90
25939;DHT22;13739;51.172;4.466;2022-09-27T14:57:27;12.30;99.90
25939;DHT22;13739;51.172;4.466;2022-09-27T14:59:54;12.40;99.90
25939;DHT22;13739;51.172;4.466;2022-09-27T15:02:23;12.40;99.90
25939;DHT22;13739;51.172;4.466;2022-09-27T15:04:50;12.50;99.90
25939;DHT22;13739;51.172;4.466;2022-09-27T15:07:18;12.50;99.90
25939;DHT22;13739;51.172;4.466;2022-09-27T15:09:44;12.30;99.90
25939;DHT22;13739;51.172;4.466;2022-09-27T15:12:12;12.20;99.90
25939;DHT22;13739;51.172;4.466;2022-09-27T15:14:40;12.10;99.90
25939;DHT22;13739;51.172;4.466;2022-09-27T15:17:15;11.90;99.90
25939;DHT22;13739;51.172;4.466;2022-09-27T15:20:02;11.90;99.90
25939;DHT22;13739;51.172;4.466;2022-09-27T15:22:32;12.00;99.90
25939;DHT22;13739;51.172;4.466;2022-09-27T15:25:14;12.00;99.90
25939;DHT22;13739;51.172;4.466;2022-09-27T15:27:49;12.00;99.90
25939;DHT22;13739;51.172;4.466;2022-09-27T15:30:32;12.10;99.90
25939;DHT22;13739;51.172;4.466;2022-09-27T15:32:57;12.20;99.90
25939;DHT22;13739;51.172;4.466;2022-09-27T15:35:29;12.40;99.90
25939;DHT22;13739;51.172;4.466;2022-09-27T15:41:03;13.10;99.90
25939;DHT22;13739;51.172;4.466;2022-09-27T15:43:32;13.30;99.90
25939;DHT22;13739;51.172;4.466;2022-09-27T15:46:05;13.20;99.90
25939;DHT22;13739;51.172;4.466;2022-09-27T15:51:43;12.80;99.90
25939;DHT22;13739;51.172;4.466;2022-09-27T15:54:09;12.60;99.90
25939;DHT22;13739;51.172;4.466;2022-09-27T15:56:35;12.70;99.90
25939;DHT22;13739;51.172;4.466;2022-09-27T15:59:02;12.60;99.90
25939;DHT22;13739;51.172;4.466;2022-09-27T16:01:27;12.60;99.90
25939;DHT22;13739;51.172;4.466;2022-09-27T16:03:53;12.50;99.90
25939;DHT22;13739;51.172;4.466;2022-09-27T16:06:26;12.60;99.90
25939;DHT22;13739;51.172;4.466;2022-09-27T16:08:53;12.60;99.90
25939;DHT22;13739;51.172;4.466;2022-09-27T16:11:18;12.70;99.90
25939;DHT22;13739;51.172;4.466;2022-09-27T16:13:44;12.60;99.90
25939;DHT22;13739;51.172;4.466;2022-09-27T16:16:19;12.70;99.90
25939;DHT22;13739;51.172;4.466;2022-09-27T16:18:45;12.70;99.90
25939;DHT22;13739;51.172;4.466;2022-09-27T16:21:11;12.80;99.90
25939;DHT22;13739;51.172;4.466;2022-09-27T16:23:37;12.80;99.90
25939;DHT22;13739;51.172;4.466;2022-09-27T16:26:03;12.80;99.90
25939;DHT22;13739;51.172;4.466;2022-09-27T16:28:33;12.80;99.90
25939;DHT22;13739;51.172;4.466;2022-09-27T16:31:04;12.80;99.90
25939;DHT22;13739;51.172;4.466;2022-09-27T16:33:31;12.80;99.90
25939;DHT22;13739;51.172;4.466;2022-09-27T16:35:57;12.70;99.90
25939;DHT22;13739;51.172;4.466;2022-09-27T16:38:26;12.70;99.90
25939;DHT22;13739;51.172;4.466;2022-09-27T16:40:59;12.80;99.90
25939;DHT22;13739;51.172;4.466;2022-09-27T16:43:26;12.80;99.90
25939;DHT22;13739;51.172;4.466;2022-09-27T16:45:52;12.80;99.90
25939;DHT22;13739;51.172;4.466;2022-09-27T16:48:17;12.80;99.90
25939;DHT22;13739;51.172;4.466;2022-09-27T16:50:43;12.60;99.90
25939;DHT22;13739;51.172;4.466;2022-09-27T16:53:27;12.50;99.90
25939;DHT22;13739;51.172;4.466;2022-09-27T16:55:58;12.50;99.90
25939;DHT22;13739;51.172;4.466;2022-09-27T16:58:23;12.40;99.90
25939;DHT22;13739;51.172;4.466;2022-09-27T17:00:49;12.30;99.90
25939;DHT22;13739;51.172;4.466;2022-09-27T17:03:14;12.40;99.90
25939;DHT22;13739;51.172;4.466;2022-09-27T17:05:40;12.30;99.90
25939;DHT22;13739;51.172;4.466;2022-09-27T17:08:05;12.20;99.90
25939;DHT22;13739;51.172;4.466;2022-09-27T17:10:31;12.20;99.90
25939;DHT22;13739;51.172;4.466;2022-09-27T17:12:57;12.20;99.90
25939;DHT22;13739;51.172;4.466;2022-09-27T17:15:22;12.00;99.90
25939;DHT22;13739;51.172;4.466;2022-09-27T17:17:49;11.90;99.90
25939;DHT22;13739;51.172;4.466;2022-09-27T17:20:14;11.90;99.90
25939;DHT22;13739;51.172;4.466;2022-09-27T17:22:40;11.80;99.90
25939;DHT22;13739;51.172;4.466;2022-09-27T17:25:06;11.70;99.90
25939;DHT22;13739;51.172;4.466;2022-09-27T17:27:31;11.80;99.90
25939;DHT22;13739;51.172;4.466;2022-09-27T17:29:57;11.80;99.90
25939;DHT22;13739;51.172;4.466;2022-09-27T17:32:25;12.00;99.90
25939;DHT22;13739;51.172;4.466;2022-09-27T17:34:52;11.90;99.90
25939;DHT22;13739;51.172;4.466;2022-09-27T17:37:18;11.90;99.90
25939;DHT22;13739;51.172;4.466;2022-09-27T17:39:44;12.00;99.90
25939;DHT22;13739;51.172;4.466;2022-09-27T17:42:10;11.90;99.90
25939;DHT22;13739;51.172;4.466;2022-09-27T17:44:39;12.00;99.90
25939;DHT22;13739;51.172;4.466;2022-09-27T17:47:05;12.00;99.90
25939;DHT22;13739;51.172;4.466;2022-09-27T17:49:49;12.00;99.90
25939;DHT22;13739;51.172;4.466;2022-09-27T17:52:54;12.00;99.90
25939;DHT22;13739;51.172;4.466;2022-09-27T17:55:21;12.00;99.90
25939;DHT22;13739;51.172;4.466;2022-09-27T17:57:47;12.00;99.90
25939;DHT22;13739;51.172;4.466;2022-09-27T18:00:14;12.00;99.90
25939;DHT22;13739;51.172;4.466;2022-09-27T18:02:40;12.00;99.90
25939;DHT22;13739;51.172;4.466;2022-09-27T18:05:06;11.90;99.90
25939;DHT22;13739;51.172;4.466;2022-09-27T18:07:32;11.90;99.90
25939;DHT22;13739;51.172;4.466;2022-09-27T18:09:58;11.80;99.90
25939;DHT22;13739;51.172;4.466;2022-09-27T18:12:23;11.70;99.90
25939;DHT22;13739;51.172;4.466;2022-09-27T18:14:56;11.60;99.90
25939;DHT22;13739;51.172;4.466;2022-09-27T18:17:23;11.50;99.90
25939;DHT22;13739;51.172;4.466;2022-09-27T18:19:49;11.40;99.90
25939;DHT22;13739;51.172;4.466;2022-09-27T18:22:15;11.50;99.90
25939;DHT22;13739;51.172;4.466;2022-09-27T18:24:40;11.50;99.90
25939;DHT22;13739;51.172;4.466;2022-09-27T18:27:06;11.50;99.90
25939;DHT22;13739;51.172;4.466;2022-09-27T18:29:31;11.50;99.90
25939;DHT22;13739;51.172;4.466;2022-09-27T18:31:57;11.40;99.90
25939;DHT22;13739;51.172;4.466;2022-09-27T18:34:23;11.40;99.90